BOX77UK VCBI-VRMM
Flight info
| Callsign | BOX77UK |
|---|---|
| Flight time | N/A |
| Altitude | 32000 |
| Route | LALUM1D TELIG M512 HOKEY HOKEY1A |
| Aircraft | B77L/H-SDE1E2E3FGHIJ2J3J4J5M1RWXY/LB1D1 |
Departure
| Time | 2026-04-29 10:00 |
|---|---|
| Airport | Bandaranaike International Colombo Airport (VCBI) |
Arrival
| Time | N/A |
|---|---|
| Airport | Velana International Airport (VRMM) |
| Time | Latitude | Longitude | Altitude | Speed | Heading |
|---|---|---|---|---|---|
| 2026-04-29 09:35 | 7.17378 | 79.88246 | 32 ft | 0 kts | 37° |
| 2026-04-29 09:50 | 7.17368 | 79.88238 | 31 ft | 4 kts | 35° |
| 2026-04-29 09:50 | 7.17345 | 79.88223 | 31 ft | 4 kts | 29° |
| 2026-04-29 09:50 | 7.17321 | 79.88211 | 32 ft | 4 kts | 18° |
| 2026-04-29 09:51 | 7.17295 | 79.88207 | 32 ft | 4 kts | 344° |
| 2026-04-29 09:51 | 7.17283 | 79.88213 | 31 ft | 2 kts | 307° |
| 2026-04-29 09:53 | 7.17304 | 79.88185 | 32 ft | 10 kts | 307° |
| 2026-04-29 09:53 | 7.17346 | 79.88129 | 32 ft | 10 kts | 307° |
| 2026-04-29 09:54 | 7.17390 | 79.88075 | 32 ft | 10 kts | 323° |
| 2026-04-29 09:54 | 7.17453 | 79.88095 | 32 ft | 10 kts | 33° |
| 2026-04-29 09:54 | 7.17509 | 79.88138 | 32 ft | 10 kts | 37° |
| 2026-04-29 09:54 | 7.17566 | 79.88182 | 32 ft | 11 kts | 37° |
| 2026-04-29 09:55 | 7.17639 | 79.88237 | 32 ft | 15 kts | 37° |
| 2026-04-29 09:55 | 7.17731 | 79.88308 | 32 ft | 17 kts | 37° |
| 2026-04-29 09:55 | 7.17824 | 79.88379 | 32 ft | 17 kts | 37° |
| 2026-04-29 09:55 | 7.17920 | 79.88451 | 32 ft | 17 kts | 36° |
| 2026-04-29 09:56 | 7.18015 | 79.88523 | 32 ft | 17 kts | 38° |
| 2026-04-29 09:56 | 7.18108 | 79.88597 | 32 ft | 17 kts | 36° |
| 2026-04-29 09:56 | 7.18216 | 79.88678 | 32 ft | 21 kts | 37° |
| 2026-04-29 09:56 | 7.18344 | 79.88775 | 32 ft | 28 kts | 37° |
| 2026-04-29 09:57 | 7.18499 | 79.88893 | 32 ft | 28 kts | 37° |
| 2026-04-29 09:57 | 7.18653 | 79.89012 | 31 ft | 28 kts | 37° |
| 2026-04-29 09:57 | 7.18808 | 79.89129 | 32 ft | 28 kts | 37° |
| 2026-04-29 09:57 | 7.18963 | 79.89247 | 32 ft | 28 kts | 37° |
| 2026-04-29 09:58 | 7.19117 | 79.89366 | 31 ft | 27 kts | 37° |
| 2026-04-29 09:58 | 7.19221 | 79.89388 | 31 ft | 15 kts | 317° |
| 2026-04-29 09:58 | 7.19280 | 79.89304 | 31 ft | 14 kts | 285° |
| 2026-04-29 09:58 | 7.19242 | 79.89237 | 32 ft | 13 kts | 220° |
| 2026-04-29 09:59 | 7.19026 | 79.89072 | 33 ft | 72 kts | 217° |
| 2026-04-29 09:59 | 7.18492 | 79.88665 | 32 ft | 114 kts | 217° |
| 2026-04-29 09:59 | 7.17755 | 79.88100 | 35 ft | 161 kts | 218° |
| 2026-04-29 09:59 | 7.16766 | 79.87339 | 523 ft | 180 kts | 219° |
| 2026-04-29 10:00 | 7.15770 | 79.86572 | 1129 ft | 179 kts | 217° |
| 2026-04-29 10:00 | 7.14756 | 79.85785 | 1778 ft | 180 kts | 218° |
| 2026-04-29 10:00 | 7.13720 | 79.84982 | 2193 ft | 205 kts | 217° |
| 2026-04-29 10:00 | 7.12513 | 79.84049 | 2458 ft | 232 kts | 217° |
| 2026-04-29 10:01 | 7.11222 | 79.83054 | 3207 ft | 237 kts | 216° |
| 2026-04-29 10:01 | 7.09866 | 79.82011 | 3804 ft | 250 kts | 216° |
| 2026-04-29 10:01 | 7.08465 | 79.80935 | 4580 ft | 258 kts | 216° |
| 2026-04-29 10:01 | 7.07013 | 79.79820 | 5356 ft | 264 kts | 216° |
| 2026-04-29 10:02 | 7.05541 | 79.78690 | 6231 ft | 265 kts | 216° |
| 2026-04-29 10:02 | 7.04059 | 79.77552 | 6976 ft | 271 kts | 216° |
| 2026-04-29 10:02 | 7.02536 | 79.76386 | 7654 ft | 279 kts | 216° |
| 2026-04-29 10:02 | 7.00991 | 79.75201 | 8420 ft | 283 kts | 216° |
| 2026-04-29 10:03 | 6.99413 | 79.73992 | 9157 ft | 287 kts | 215° |
| 2026-04-29 10:03 | 6.97806 | 79.72761 | 9866 ft | 294 kts | 216° |
| 2026-04-29 10:03 | 6.96141 | 79.71486 | 10342 ft | 311 kts | 215° |
| 2026-04-29 10:03 | 6.94361 | 79.70125 | 10523 ft | 338 kts | 216° |
| 2026-04-29 10:04 | 6.92418 | 79.68637 | 10718 ft | 364 kts | 216° |
| 2026-04-29 10:04 | 6.90345 | 79.67051 | 11043 ft | 381 kts | 216° |
| 2026-04-29 10:04 | 6.88217 | 79.65404 | 11630 ft | 387 kts | 218° |
| 2026-04-29 10:04 | 6.86308 | 79.63434 | 12186 ft | 397 kts | 230° |
| 2026-04-29 10:05 | 6.84612 | 79.61206 | 12860 ft | 404 kts | 233° |
| 2026-04-29 10:05 | 6.82958 | 79.58887 | 13559 ft | 410 kts | 233° |
| 2026-04-29 10:05 | 6.81278 | 79.56551 | 14212 ft | 413 kts | 232° |
| 2026-04-29 10:05 | 6.79555 | 79.54222 | 14926 ft | 416 kts | 231° |
| 2026-04-29 10:06 | 6.77795 | 79.51905 | 15576 ft | 419 kts | 231° |
| 2026-04-29 10:06 | 6.76023 | 79.49617 | 16316 ft | 420 kts | 230° |
| 2026-04-29 10:06 | 6.74200 | 79.47287 | 16883 ft | 425 kts | 230° |
| 2026-04-29 10:06 | 6.72353 | 79.44941 | 17456 ft | 430 kts | 230° |
| 2026-04-29 10:07 | 6.70488 | 79.42574 | 18070 ft | 433 kts | 230° |
| 2026-04-29 10:07 | 6.68607 | 79.40188 | 18608 ft | 436 kts | 230° |
| 2026-04-29 10:07 | 6.66713 | 79.37785 | 19134 ft | 439 kts | 230° |
| 2026-04-29 10:07 | 6.64805 | 79.35363 | 19633 ft | 443 kts | 230° |
| 2026-04-29 10:08 | 6.62904 | 79.32950 | 20116 ft | 446 kts | 230° |
| 2026-04-29 10:08 | 6.60969 | 79.30492 | 20613 ft | 450 kts | 230° |
| 2026-04-29 10:08 | 6.59018 | 79.28015 | 21090 ft | 453 kts | 230° |
| 2026-04-29 10:08 | 6.57052 | 79.25518 | 21559 ft | 457 kts | 230° |
| 2026-04-29 10:09 | 6.55071 | 79.23003 | 22025 ft | 460 kts | 230° |
| 2026-04-29 10:09 | 6.53079 | 79.20474 | 22467 ft | 463 kts | 230° |
| 2026-04-29 10:09 | 6.51068 | 79.17921 | 22925 ft | 467 kts | 230° |
| 2026-04-29 10:09 | 6.49043 | 79.15352 | 23362 ft | 470 kts | 230° |
| 2026-04-29 10:10 | 6.47002 | 79.12765 | 23731 ft | 473 kts | 230° |
| 2026-04-29 10:10 | 6.44951 | 79.10166 | 24107 ft | 475 kts | 230° |
| 2026-04-29 10:10 | 6.42891 | 79.07554 | 24490 ft | 477 kts | 230° |
| 2026-04-29 10:10 | 6.40826 | 79.04937 | 24878 ft | 479 kts | 230° |
| 2026-04-29 10:11 | 6.38746 | 79.02299 | 25257 ft | 481 kts | 230° |
| 2026-04-29 10:11 | 6.36659 | 78.99653 | 25609 ft | 484 kts | 230° |
| 2026-04-29 10:11 | 6.34590 | 78.97030 | 25953 ft | 486 kts | 230° |
| 2026-04-29 10:11 | 6.32484 | 78.94361 | 26297 ft | 489 kts | 230° |
| 2026-04-29 10:12 | 6.30365 | 78.91676 | 26632 ft | 491 kts | 230° |
| 2026-04-29 10:12 | 6.28273 | 78.88951 | 26964 ft | 494 kts | 234° |